sensor_id;sensor_type;location;lat;lon;timestamp;pressure;altitude;pressure_sealevel;temperature;humidity
70506;BME280;58032;49.820;6.274;2023-05-09T09:48:57;97356.09;;;17.45;100.00
70506;BME280;58032;49.820;6.274;2023-05-09T09:51:26;97357.16;;;17.53;100.00
70506;BME280;58032;49.820;6.274;2023-05-09T09:53:54;97354.13;;;17.02;100.00
70506;BME280;58032;49.820;6.274;2023-05-09T09:56:37;97350.34;;;17.22;100.00
70506;BME280;58032;49.820;6.274;2023-05-09T09:59:12;97356.56;;;17.32;100.00
70506;BME280;58032;49.820;6.274;2023-05-09T10:02:09;97348.34;;;16.90;100.00
70506;BME280;58032;49.820;6.274;2023-05-09T10:04:38;97339.75;;;17.22;100.00
70506;BME280;58032;49.820;6.274;2023-05-09T10:07:09;97327.72;;;17.90;100.00
70506;BME280;58032;49.820;6.274;2023-05-09T10:09:37;97327.53;;;18.05;100.00
70506;BME280;58032;49.820;6.274;2023-05-09T10:12:05;97328.53;;;17.91;100.00
70506;BME280;58032;49.820;6.274;2023-05-09T10:14:35;97327.59;;;17.28;100.00
70506;BME280;58032;49.820;6.274;2023-05-09T10:17:03;97333.13;;;16.50;100.00
70506;BME280;58032;49.820;6.274;2023-05-09T10:19:31;97320.94;;;16.44;100.00
70506;BME280;58032;49.820;6.274;2023-05-09T10:22:05;97326.47;;;16.21;100.00
70506;BME280;58032;49.820;6.274;2023-05-09T10:24:38;97322.56;;;16.19;100.00
70506;BME280;58032;49.820;6.274;2023-05-09T10:27:09;97326.72;;;15.91;100.00
70506;BME280;58032;49.820;6.274;2023-05-09T10:29:39;97319.41;;;15.58;100.00
70506;BME280;58032;49.820;6.274;2023-05-09T10:35:04;97312.91;;;15.78;100.00
70506;BME280;58032;49.820;6.274;2023-05-09T10:37:32;97321.13;;;16.03;100.00
70506;BME280;58032;49.820;6.274;2023-05-09T10:40:03;97314.41;;;16.32;100.00
70506;BME280;58032;49.820;6.274;2023-05-09T10:42:31;97302.75;;;16.68;100.00
70506;BME280;58032;49.820;6.274;2023-05-09T10:44:58;97308.44;;;16.68;100.00
70506;BME280;58032;49.820;6.274;2023-05-09T10:47:25;97303.63;;;16.42;100.00
70506;BME280;58032;49.820;6.274;2023-05-09T10:49:53;97305.31;;;16.66;100.00
70506;BME280;58032;49.820;6.274;2023-05-09T10:52:21;97298.91;;;16.33;100.00
70506;BME280;58032;49.820;6.274;2023-05-09T10:55:02;97307.41;;;15.95;100.00
70506;BME280;58032;49.820;6.274;2023-05-09T10:57:32;97311.28;;;15.72;100.00
70506;BME280;58032;49.820;6.274;2023-05-09T11:00:03;97313.38;;;15.24;100.00
70506;BME280;58032;49.820;6.274;2023-05-09T11:02:31;97309.41;;;14.95;100.00
70506;BME280;58032;49.820;6.274;2023-05-09T11:05:17;97310.97;;;14.96;100.00
70506;BME280;58032;49.820;6.274;2023-05-09T11:07:45;97308.28;;;15.28;100.00
70506;BME280;58032;49.820;6.274;2023-05-09T11:10:16;97308.06;;;15.85;100.00
70506;BME280;58032;49.820;6.274;2023-05-09T11:12:57;97283.91;;;16.27;100.00
70506;BME280;58032;49.820;6.274;2023-05-09T11:15:25;97282.13;;;16.78;100.00
70506;BME280;58032;49.820;6.274;2023-05-09T11:18:06;97279.56;;;16.86;100.00
70506;BME280;58032;49.820;6.274;2023-05-09T11:20:33;97271.16;;;16.60;100.00
70506;BME280;58032;49.820;6.274;2023-05-09T11:23:03;97260.91;;;16.74;100.00
70506;BME280;58032;49.820;6.274;2023-05-09T11:25:31;97258.97;;;17.03;100.00
70506;BME280;58032;49.820;6.274;2023-05-09T11:28:01;97259.03;;;17.14;100.00
70506;BME280;58032;49.820;6.274;2023-05-09T11:30:38;97250.78;;;17.33;100.00
70506;BME280;58032;49.820;6.274;2023-05-09T11:33:21;97238.63;;;17.27;100.00
70506;BME280;58032;49.820;6.274;2023-05-09T11:38:46;97235.63;;;16.87;100.00
70506;BME280;58032;49.820;6.274;2023-05-09T11:41:14;97242.13;;;16.39;100.00
70506;BME280;58032;49.820;6.274;2023-05-09T11:43:42;97237.75;;;16.43;100.00
70506;BME280;58032;49.820;6.274;2023-05-09T11:46:10;97238.59;;;16.61;100.00
70506;BME280;58032;49.820;6.274;2023-05-09T11:48:39;97233.94;;;17.18;100.00
70506;BME280;58032;49.820;6.274;2023-05-09T11:51:15;97217.91;;;17.15;100.00
70506;BME280;58032;49.820;6.274;2023-05-09T11:53:49;97212.25;;;17.38;100.00
70506;BME280;58032;49.820;6.274;2023-05-09T11:56:16;97219.16;;;17.08;100.00
70506;BME280;58032;49.820;6.274;2023-05-09T11:58:43;97211.94;;;17.07;100.00
70506;BME280;58032;49.820;6.274;2023-05-09T12:01:12;97212.41;;;16.40;100.00
70506;BME280;58032;49.820;6.274;2023-05-09T12:03:43;97211.78;;;16.68;100.00
70506;BME280;58032;49.820;6.274;2023-05-09T12:06:18;97203.53;;;16.81;100.00
70506;BME280;58032;49.820;6.274;2023-05-09T12:08:45;97196.53;;;16.76;100.00
70506;BME280;58032;49.820;6.274;2023-05-09T12:11:13;97207.91;;;16.76;100.00
70506;BME280;58032;49.820;6.274;2023-05-09T12:13:47;97200.41;;;16.68;100.00
70506;BME280;58032;49.820;6.274;2023-05-09T12:16:16;97202.22;;;16.76;100.00
70506;BME280;58032;49.820;6.274;2023-05-09T12:18:50;97195.22;;;16.60;100.00
70506;BME280;58032;49.820;6.274;2023-05-09T12:21:18;97192.16;;;16.81;100.00
70506;BME280;58032;49.820;6.274;2023-05-09T12:23:46;97188.41;;;16.46;100.00
70506;BME280;58032;49.820;6.274;2023-05-09T12:26:14;97196.56;;;16.22;100.00
70506;BME280;58032;49.820;6.274;2023-05-09T12:28:42;97194.19;;;16.14;100.00
70506;BME280;58032;49.820;6.274;2023-05-09T12:31:09;97194.53;;;15.85;100.00
70506;BME280;58032;49.820;6.274;2023-05-09T12:33:37;97197.94;;;15.94;100.00
70506;BME280;58032;49.820;6.274;2023-05-09T12:36:09;97198.31;;;16.08;100.00
70506;BME280;58032;49.820;6.274;2023-05-09T12:38:37;97197.47;;;16.02;100.00
70506;BME280;58032;49.820;6.274;2023-05-09T12:41:09;97196.16;;;15.97;100.00
70506;BME280;58032;49.820;6.274;2023-05-09T12:43:47;97191.88;;;15.81;100.00
70506;BME280;58032;49.820;6.274;2023-05-09T12:46:18;97183.88;;;15.47;100.00
70506;BME280;58032;49.820;6.274;2023-05-09T12:48:46;97185.97;;;15.52;100.00
70506;BME280;58032;49.820;6.274;2023-05-09T12:51:20;97191.34;;;15.45;100.00
70506;BME280;58032;49.820;6.274;2023-05-09T12:53:48;97184.44;;;15.51;100.00
70506;BME280;58032;49.820;6.274;2023-05-09T12:56:19;97190.31;;;15.42;100.00
70506;BME280;58032;49.820;6.274;2023-05-09T12:58:53;97191.28;;;15.39;100.00
70506;BME280;58032;49.820;6.274;2023-05-09T13:01:27;97192.19;;;14.98;100.00
70506;BME280;58032;49.820;6.274;2023-05-09T13:04:02;97202.16;;;15.14;100.00
70506;BME280;58032;49.820;6.274;2023-05-09T13:06:29;97187.03;;;15.23;100.00
70506;BME280;58032;49.820;6.274;2023-05-09T13:08:58;97199.44;;;14.99;100.00
70506;BME280;58032;49.820;6.274;2023-05-09T13:11:26;97188.59;;;14.98;100.00
70506;BME280;58032;49.820;6.274;2023-05-09T13:13:53;97195.25;;;14.95;100.00
70506;BME280;58032;49.820;6.274;2023-05-09T13:16:20;97187.91;;;14.82;100.00
70506;BME280;58032;49.820;6.274;2023-05-09T13:18:47;97186.34;;;14.81;100.00
70506;BME280;58032;49.820;6.274;2023-05-09T13:21:14;97185.34;;;14.84;100.00
70506;BME280;58032;49.820;6.274;2023-05-09T13:23:41;97184.34;;;14.87;100.00
70506;BME280;58032;49.820;6.274;2023-05-09T13:26:11;97178.63;;;15.08;100.00
70506;BME280;58032;49.820;6.274;2023-05-09T13:28:38;97176.41;;;15.18;100.00
70506;BME280;58032;49.820;6.274;2023-05-09T13:31:05;97177.34;;;15.09;100.00
70506;BME280;58032;49.820;6.274;2023-05-09T13:33:32;97160.13;;;15.13;100.00
70506;BME280;58032;49.820;6.274;2023-05-09T13:35:59;97169.84;;;15.06;100.00
70506;BME280;58032;49.820;6.274;2023-05-09T13:38:26;97164.28;;;14.91;100.00
70506;BME280;58032;49.820;6.274;2023-05-09T13:40:56;97169.72;;;14.68;100.00
70506;BME280;58032;49.820;6.274;2023-05-09T13:43:23;97168.91;;;14.47;100.00
70506;BME280;58032;49.820;6.274;2023-05-09T13:45:50;97175.94;;;14.52;100.00
70506;BME280;58032;49.820;6.274;2023-05-09T13:48:17;97174.09;;;14.49;100.00
70506;BME280;58032;49.820;6.274;2023-05-09T13:50:44;97175.78;;;14.20;100.00
70506;BME280;58032;49.820;6.274;2023-05-09T13:53:12;97174.38;;;14.30;100.00
70506;BME280;58032;49.820;6.274;2023-05-09T13:55:39;97172.91;;;14.35;100.00
70506;BME280;58032;49.820;6.274;2023-05-09T13:58:06;97167.94;;;14.50;100.00
70506;BME280;58032;49.820;6.274;2023-05-09T14:00:33;97164.31;;;14.29;100.00
70506;BME280;58032;49.820;6.274;2023-05-09T14:03:00;97152.34;;;14.40;100.00
70506;BME280;58032;49.820;6.274;2023-05-09T14:05:31;97156.53;;;14.24;100.00
70506;BME280;58032;49.820;6.274;2023-05-09T14:07:58;97154.22;;;14.43;100.00
70506;BME280;58032;49.820;6.274;2023-05-09T14:10:27;97146.94;;;14.63;100.00
70506;BME280;58032;49.820;6.274;2023-05-09T14:12:54;97146.94;;;14.63;100.00
70506;BME280;58032;49.820;6.274;2023-05-09T14:15:20;97139.41;;;14.54;100.00
70506;BME280;58032;49.820;6.274;2023-05-09T14:17:47;97139.63;;;14.50;100.00
70506;BME280;58032;49.820;6.274;2023-05-09T14:20:14;97135.09;;;14.64;100.00
70506;BME280;58032;49.820;6.274;2023-05-09T14:22:41;97131.94;;;14.56;100.00
70506;BME280;58032;49.820;6.274;2023-05-09T14:25:08;97126.34;;;14.41;100.00
70506;BME280;58032;49.820;6.274;2023-05-09T14:27:35;97126.66;;;14.02;100.00
70506;BME280;58032;49.820;6.274;2023-05-09T14:30:03;97118.66;;;14.21;100.00
70506;BME280;58032;49.820;6.274;2023-05-09T14:32:30;97125.47;;;14.09;100.00
70506;BME280;58032;49.820;6.274;2023-05-09T14:34:57;97119.28;;;14.11;100.00
70506;BME280;58032;49.820;6.274;2023-05-09T14:37:24;97118.38;;;14.19;100.00
70506;BME280;58032;49.820;6.274;2023-05-09T14:39:51;97110.78;;;13.90;100.00
70506;BME280;58032;49.820;6.274;2023-05-09T14:42:18;97114.56;;;14.02;100.00
70506;BME280;58032;49.820;6.274;2023-05-09T14:44:45;97113.28;;;14.03;100.00
70506;BME280;58032;49.820;6.274;2023-05-09T14:47:13;97105.84;;;13.49;100.00
70506;BME280;58032;49.820;6.274;2023-05-09T14:49:39;97102.84;;;12.48;100.00
70506;BME280;58032;49.820;6.274;2023-05-09T14:52:07;97108.31;;;12.12;100.00
70506;BME280;58032;49.820;6.274;2023-05-09T14:54:33;97100.31;;;11.86;100.00
70506;BME280;58032;49.820;6.274;2023-05-09T14:57:01;97097.59;;;11.68;100.00
70506;BME280;58032;49.820;6.274;2023-05-09T14:59:30;97114.00;;;11.45;100.00
70506;BME280;58032;49.820;6.274;2023-05-09T15:01:57;97114.41;;;11.29;100.00
70506;BME280;58032;49.820;6.274;2023-05-09T15:04:24;97111.16;;;11.21;100.00
70506;BME280;58032;49.820;6.274;2023-05-09T15:06:56;97119.72;;;11.27;100.00
70506;BME280;58032;49.820;6.274;2023-05-09T15:09:24;97111.84;;;11.40;100.00
70506;BME280;58032;49.820;6.274;2023-05-09T15:11:51;97110.25;;;11.48;100.00
70506;BME280;58032;49.820;6.274;2023-05-09T15:14:18;97100.78;;;11.61;100.00
70506;BME280;58032;49.820;6.274;2023-05-09T15:16:45;97099.13;;;11.78;100.00
70506;BME280;58032;49.820;6.274;2023-05-09T15:19:12;97095.44;;;12.11;100.00
70506;BME280;58032;49.820;6.274;2023-05-09T15:21:40;97094.81;;;12.16;100.00
70506;BME280;58032;49.820;6.274;2023-05-09T15:24:07;97090.34;;;12.25;100.00
70506;BME280;58032;49.820;6.274;2023-05-09T15:26:34;97093.53;;;12.17;100.00
70506;BME280;58032;49.820;6.274;2023-05-09T15:29:00;97088.16;;;12.05;100.00
70506;BME280;58032;49.820;6.274;2023-05-09T15:31:31;97083.31;;;11.96;100.00
70506;BME280;58032;49.820;6.274;2023-05-09T15:33:58;97085.22;;;11.90;100.00
70506;BME280;58032;49.820;6.274;2023-05-09T15:36:27;97087.09;;;11.93;100.00
70506;BME280;58032;49.820;6.274;2023-05-09T15:38:55;97074.97;;;11.77;100.00
70506;BME280;58032;49.820;6.274;2023-05-09T15:41:22;97073.47;;;11.67;100.00
70506;BME280;58032;49.820;6.274;2023-05-09T15:43:50;97076.34;;;11.57;100.00
70506;BME280;58032;49.820;6.274;2023-05-09T15:46:17;97077.31;;;11.54;100.00
70506;BME280;58032;49.820;6.274;2023-05-09T15:48:44;97077.44;;;11.60;100.00
70506;BME280;58032;49.820;6.274;2023-05-09T15:51:11;97073.47;;;11.67;100.00
70506;BME280;58032;49.820;6.274;2023-05-09T15:53:39;97070.28;;;11.74;100.00
70506;BME280;58032;49.820;6.274;2023-05-09T15:56:07;97055.53;;;11.79;100.00
70506;BME280;58032;49.820;6.274;2023-05-09T15:58:34;97058.13;;;11.68;100.00
70506;BME280;58032;49.820;6.274;2023-05-09T16:01:01;97054.09;;;11.60;100.00
70506;BME280;58032;49.820;6.274;2023-05-09T16:03:31;97050.38;;;11.53;100.00
70506;BME280;58032;49.820;6.274;2023-05-09T16:05:59;97050.44;;;11.44;100.00
70506;BME280;58032;49.820;6.274;2023-05-09T16:08:26;97049.53;;;11.38;100.00
70506;BME280;58032;49.820;6.274;2023-05-09T16:10:53;97046.97;;;11.49;100.00
70506;BME280;58032;49.820;6.274;2023-05-09T16:13:20;97044.69;;;11.63;100.00
70506;BME280;58032;49.820;6.274;2023-05-09T16:15:48;97047.13;;;11.46;100.00
70506;BME280;58032;49.820;6.274;2023-05-09T16:18:15;97044.78;;;11.44;100.00
70506;BME280;58032;49.820;6.274;2023-05-09T16:20:42;97045.31;;;11.33;100.00
70506;BME280;58032;49.820;6.274;2023-05-09T16:23:10;97045.28;;;11.43;100.00
70506;BME280;58032;49.820;6.274;2023-05-09T16:25:37;97045.50;;;11.30;100.00
70506;BME280;58032;49.820;6.274;2023-05-09T16:28:04;97053.97;;;11.30;100.00
70506;BME280;58032;49.820;6.274;2023-05-09T16:30:33;97037.31;;;11.41;100.00
70506;BME280;58032;49.820;6.274;2023-05-09T16:32:59;97038.59;;;11.31;100.00
70506;BME280;58032;49.820;6.274;2023-05-09T16:35:27;97033.00;;;11.21;100.00
70506;BME280;58032;49.820;6.274;2023-05-09T16:37:53;97042.38;;;11.28;100.00
70506;BME280;58032;49.820;6.274;2023-05-09T16:40:20;97037.03;;;11.30;100.00
70506;BME280;58032;49.820;6.274;2023-05-09T16:42:47;97035.47;;;11.29;100.00
70506;BME280;58032;49.820;6.274;2023-05-09T16:45:15;97025.78;;;11.30;100.00
70506;BME280;58032;49.820;6.274;2023-05-09T16:47:42;97017.75;;;11.37;100.00
70506;BME280;58032;49.820;6.274;2023-05-09T16:50:09;97014.41;;;11.48;100.00
70506;BME280;58032;49.820;6.274;2023-05-09T16:52:36;97017.56;;;11.41;100.00
70506;BME280;58032;49.820;6.274;2023-05-09T16:55:03;97009.47;;;11.34;100.00
70506;BME280;58032;49.820;6.274;2023-05-09T16:57:30;97013.41;;;11.27;100.00
70506;BME280;58032;49.820;6.274;2023-05-09T16:59:57;97012.88;;;11.14;100.00
70506;BME280;58032;49.820;6.274;2023-05-09T17:02:24;97012.03;;;11.22;100.00
70506;BME280;58032;49.820;6.274;2023-05-09T17:04:51;97013.16;;;11.16;100.00
70506;BME280;58032;49.820;6.274;2023-05-09T17:07:18;97013.47;;;11.18;100.00
70506;BME280;58032;49.820;6.274;2023-05-09T17:09:45;97004.84;;;11.21;100.00
70506;BME280;58032;49.820;6.274;2023-05-09T17:12:13;97010.06;;;11.38;100.00
70506;BME280;58032;49.820;6.274;2023-05-09T17:14:46;97010.19;;;11.44;100.00
70506;BME280;58032;49.820;6.274;2023-05-09T17:17:14;97018.88;;;11.31;100.00
70506;BME280;58032;49.820;6.274;2023-05-09T17:19:43;97012.44;;;11.30;100.00
70506;BME280;58032;49.820;6.274;2023-05-09T17:22:10;97004.47;;;11.29;100.00
70506;BME280;58032;49.820;6.274;2023-05-09T17:24:36;97003.28;;;11.20;100.00
70506;BME280;58032;49.820;6.274;2023-05-09T17:27:04;97003.88;;;11.24;100.00
70506;BME280;58032;49.820;6.274;2023-05-09T17:29:30;96999.47;;;11.33;100.00
70506;BME280;58032;49.820;6.274;2023-05-09T17:31:57;96997.28;;;11.28;100.00
70506;BME280;58032;49.820;6.274;2023-05-09T17:34:27;96998.53;;;11.27;100.00
70506;BME280;58032;49.820;6.274;2023-05-09T17:36:54;97000.03;;;11.13;100.00
70506;BME280;58032;49.820;6.274;2023-05-09T17:39:22;96993.03;;;11.08;100.00
70506;BME280;58032;49.820;6.274;2023-05-09T17:41:49;97003.16;;;11.15;100.00
70506;BME280;58032;49.820;6.274;2023-05-09T17:44:16;97002.50;;;11.20;100.00
70506;BME280;58032;49.820;6.274;2023-05-09T17:46:42;96993.75;;;11.18;100.00
70506;BME280;58032;49.820;6.274;2023-05-09T17:49:09;97004.94;;;11.03;100.00
70506;BME280;58032;49.820;6.274;2023-05-09T17:51:39;97003.56;;;10.98;100.00
70506;BME280;58032;49.820;6.274;2023-05-09T17:54:06;97005.63;;;10.88;100.00
70506;BME280;58032;49.820;6.274;2023-05-09T17:56:33;96994.53;;;10.85;100.00
70506;BME280;58032;49.820;6.274;2023-05-09T17:59:00;96997.34;;;10.85;100.00
